sensor_id;sensor_type;location;lat;lon;timestamp;temperature;humidity
41557;DHT22;27720;51.992;5.890;2023-12-29T00:00:34;13.30;99.90
41557;DHT22;27720;51.992;5.890;2023-12-29T00:03:00;13.30;99.90
41557;DHT22;27720;51.992;5.890;2023-12-29T00:05:26;13.30;99.90
41557;DHT22;27720;51.992;5.890;2023-12-29T00:07:53;13.30;99.90
41557;DHT22;27720;51.992;5.890;2023-12-29T00:10:19;13.30;99.90
41557;DHT22;27720;51.992;5.890;2023-12-29T00:12:44;13.30;99.90
41557;DHT22;27720;51.992;5.890;2023-12-29T00:15:10;13.30;99.90
41557;DHT22;27720;51.992;5.890;2023-12-29T00:17:36;13.30;99.90
41557;DHT22;27720;51.992;5.890;2023-12-29T00:20:07;13.40;99.90
41557;DHT22;27720;51.992;5.890;2023-12-29T00:22:35;13.40;99.90
41557;DHT22;27720;51.992;5.890;2023-12-29T00:25:01;13.40;99.90
41557;DHT22;27720;51.992;5.890;2023-12-29T00:27:26;13.40;99.90
41557;DHT22;27720;51.992;5.890;2023-12-29T00:29:53;13.40;99.90
41557;DHT22;27720;51.992;5.890;2023-12-29T00:32:18;13.40;99.90
41557;DHT22;27720;51.992;5.890;2023-12-29T00:34:44;13.40;99.90
41557;DHT22;27720;51.992;5.890;2023-12-29T00:37:10;13.30;99.90
41557;DHT22;27720;51.992;5.890;2023-12-29T00:39:35;13.20;99.90
41557;DHT22;27720;51.992;5.890;2023-12-29T00:42:05;13.20;99.90
41557;DHT22;27720;51.992;5.890;2023-12-29T00:44:32;13.20;99.90
41557;DHT22;27720;51.992;5.890;2023-12-29T00:46:59;13.20;99.90
41557;DHT22;27720;51.992;5.890;2023-12-29T00:49:26;13.20;99.90
41557;DHT22;27720;51.992;5.890;2023-12-29T00:51:52;13.10;99.90
41557;DHT22;27720;51.992;5.890;2023-12-29T00:54:19;13.10;99.90
41557;DHT22;27720;51.992;5.890;2023-12-29T00:56:51;13.10;99.90
41557;DHT22;27720;51.992;5.890;2023-12-29T00:59:19;13.10;99.90
41557;DHT22;27720;51.992;5.890;2023-12-29T01:01:48;13.10;99.90
41557;DHT22;27720;51.992;5.890;2023-12-29T01:04:13;13.20;99.90
41557;DHT22;27720;51.992;5.890;2023-12-29T01:06:39;13.10;99.90
41557;DHT22;27720;51.992;5.890;2023-12-29T01:09:06;13.20;99.90
41557;DHT22;27720;51.992;5.890;2023-12-29T01:11:33;13.30;99.90
41557;DHT22;27720;51.992;5.890;2023-12-29T01:13:59;13.20;99.90
41557;DHT22;27720;51.992;5.890;2023-12-29T01:16:25;13.20;99.90
41557;DHT22;27720;51.992;5.890;2023-12-29T01:18:50;13.20;99.90
41557;DHT22;27720;51.992;5.890;2023-12-29T01:21:16;13.30;99.90
41557;DHT22;27720;51.992;5.890;2023-12-29T01:23:42;13.20;99.90
41557;DHT22;27720;51.992;5.890;2023-12-29T01:26:10;13.20;99.90
41557;DHT22;27720;51.992;5.890;2023-12-29T01:28:36;13.20;99.90
41557;DHT22;27720;51.992;5.890;2023-12-29T01:31:03;13.20;99.90
41557;DHT22;27720;51.992;5.890;2023-12-29T01:33:28;13.20;99.90
41557;DHT22;27720;51.992;5.890;2023-12-29T01:35:54;13.20;99.90
41557;DHT22;27720;51.992;5.890;2023-12-29T01:38:20;13.20;99.90
41557;DHT22;27720;51.992;5.890;2023-12-29T01:40:46;13.20;99.90
41557;DHT22;27720;51.992;5.890;2023-12-29T01:43:13;13.10;99.90
41557;DHT22;27720;51.992;5.890;2023-12-29T01:45:38;13.20;99.90
41557;DHT22;27720;51.992;5.890;2023-12-29T01:48:05;13.20;99.90
41557;DHT22;27720;51.992;5.890;2023-12-29T01:50:31;13.20;99.90
41557;DHT22;27720;51.992;5.890;2023-12-29T01:52:58;13.20;99.90
41557;DHT22;27720;51.992;5.890;2023-12-29T01:55:26;13.10;99.90
41557;DHT22;27720;51.992;5.890;2023-12-29T01:57:53;13.10;99.90
41557;DHT22;27720;51.992;5.890;2023-12-29T02:00:20;13.10;99.90
41557;DHT22;27720;51.992;5.890;2023-12-29T02:02:48;13.10;99.90
41557;DHT22;27720;51.992;5.890;2023-12-29T02:05:14;13.10;99.90
41557;DHT22;27720;51.992;5.890;2023-12-29T02:07:41;13.10;99.90
41557;DHT22;27720;51.992;5.890;2023-12-29T02:10:08;13.10;99.90
41557;DHT22;27720;51.992;5.890;2023-12-29T02:12:34;13.10;99.90
41557;DHT22;27720;51.992;5.890;2023-12-29T02:15:03;13.10;99.90
41557;DHT22;27720;51.992;5.890;2023-12-29T02:17:36;13.10;99.90
41557;DHT22;27720;51.992;5.890;2023-12-29T10:01:04;9.10;99.90
41557;DHT22;27720;51.992;5.890;2023-12-29T10:03:30;9.40;99.90
41557;DHT22;27720;51.992;5.890;2023-12-29T10:06:00;10.10;99.90
41557;DHT22;27720;51.992;5.890;2023-12-29T10:08:27;10.70;99.90
41557;DHT22;27720;51.992;5.890;2023-12-29T10:10:55;11.20;99.90
41557;DHT22;27720;51.992;5.890;2023-12-29T10:13:23;11.60;99.90
41557;DHT22;27720;51.992;5.890;2023-12-29T10:16:01;11.80;99.90
41557;DHT22;27720;51.992;5.890;2023-12-29T10:18:37;12.10;99.90
41557;DHT22;27720;51.992;5.890;2023-12-29T10:24:03;12.40;99.90
41557;DHT22;27720;51.992;5.890;2023-12-29T10:26:31;12.50;99.90
41557;DHT22;27720;51.992;5.890;2023-12-29T10:28:58;12.60;99.90
41557;DHT22;27720;51.992;5.890;2023-12-29T10:31:24;12.60;99.90
41557;DHT22;27720;51.992;5.890;2023-12-29T10:33:51;12.70;99.90
41557;DHT22;27720;51.992;5.890;2023-12-29T10:36:17;12.70;99.90
41557;DHT22;27720;51.992;5.890;2023-12-29T10:38:43;12.70;99.90
41557;DHT22;27720;51.992;5.890;2023-12-29T10:41:17;12.80;99.90
41557;DHT22;27720;51.992;5.890;2023-12-29T10:43:45;12.80;99.90
41557;DHT22;27720;51.992;5.890;2023-12-29T10:46:18;12.80;99.90
41557;DHT22;27720;51.992;5.890;2023-12-29T10:48:43;12.80;99.90
41557;DHT22;27720;51.992;5.890;2023-12-29T10:51:10;12.80;99.90
41557;DHT22;27720;51.992;5.890;2023-12-29T10:53:37;12.90;99.90
41557;DHT22;27720;51.992;5.890;2023-12-29T10:56:03;12.90;99.90
41557;DHT22;27720;51.992;5.890;2023-12-29T10:58:29;12.90;99.90
41557;DHT22;27720;51.992;5.890;2023-12-29T11:00:57;13.00;99.90
41557;DHT22;27720;51.992;5.890;2023-12-29T11:03:23;13.00;99.90
41557;DHT22;27720;51.992;5.890;2023-12-29T11:05:50;13.10;99.90
41557;DHT22;27720;51.992;5.890;2023-12-29T11:08:18;13.10;99.90
41557;DHT22;27720;51.992;5.890;2023-12-29T11:10:44;13.10;99.90
41557;DHT22;27720;51.992;5.890;2023-12-29T11:13:11;13.10;99.90
41557;DHT22;27720;51.992;5.890;2023-12-29T11:15:44;13.20;99.90
41557;DHT22;27720;51.992;5.890;2023-12-29T11:18:14;13.20;99.90
41557;DHT22;27720;51.992;5.890;2023-12-29T11:20:41;13.20;99.90
41557;DHT22;27720;51.992;5.890;2023-12-29T11:23:09;13.20;99.90
41557;DHT22;27720;51.992;5.890;2023-12-29T11:25:35;13.20;99.90
41557;DHT22;27720;51.992;5.890;2023-12-29T11:28:01;13.20;99.90
41557;DHT22;27720;51.992;5.890;2023-12-29T11:30:27;13.20;99.90
41557;DHT22;27720;51.992;5.890;2023-12-29T11:33:02;13.20;99.90
41557;DHT22;27720;51.992;5.890;2023-12-29T11:35:41;13.20;99.90
41557;DHT22;27720;51.992;5.890;2023-12-29T11:40:56;13.30;99.90
41557;DHT22;27720;51.992;5.890;2023-12-29T11:43:25;13.30;99.90
41557;DHT22;27720;51.992;5.890;2023-12-29T11:45:51;13.20;99.90
41557;DHT22;27720;51.992;5.890;2023-12-29T11:48:55;13.30;99.90
41557;DHT22;27720;51.992;5.890;2023-12-29T11:51:30;13.30;99.90
41557;DHT22;27720;51.992;5.890;2023-12-29T11:53:56;13.40;99.90
41557;DHT22;27720;51.992;5.890;2023-12-29T11:56:21;13.30;99.90
41557;DHT22;27720;51.992;5.890;2023-12-29T11:58:47;13.40;99.90
41557;DHT22;27720;51.992;5.890;2023-12-29T12:01:14;13.40;99.90
41557;DHT22;27720;51.992;5.890;2023-12-29T12:03:39;13.40;99.90
41557;DHT22;27720;51.992;5.890;2023-12-29T12:06:05;13.40;99.90
41557;DHT22;27720;51.992;5.890;2023-12-29T12:08:35;13.40;99.90
41557;DHT22;27720;51.992;5.890;2023-12-29T12:13:57;13.40;99.90
41557;DHT22;27720;51.992;5.890;2023-12-29T12:19:11;13.40;99.90
41557;DHT22;27720;51.992;5.890;2023-12-29T12:21:37;13.40;99.90
41557;DHT22;27720;51.992;5.890;2023-12-29T12:24:07;13.50;99.90
41557;DHT22;27720;51.992;5.890;2023-12-29T12:26:33;13.50;99.90
41557;DHT22;27720;51.992;5.890;2023-12-29T12:29:03;13.50;99.90
41557;DHT22;27720;51.992;5.890;2023-12-29T12:31:29;13.50;99.90
41557;DHT22;27720;51.992;5.890;2023-12-29T12:33:55;13.50;99.90
41557;DHT22;27720;51.992;5.890;2023-12-29T12:36:22;13.50;99.90
41557;DHT22;27720;51.992;5.890;2023-12-29T12:38:57;13.50;99.90
41557;DHT22;27720;51.992;5.890;2023-12-29T12:41:27;13.50;99.90
41557;DHT22;27720;51.992;5.890;2023-12-29T12:44:12;13.60;99.90
41557;DHT22;27720;51.992;5.890;2023-12-29T12:49:13;13.60;99.90
41557;DHT22;27720;51.992;5.890;2023-12-29T12:51:39;13.70;99.90
41557;DHT22;27720;51.992;5.890;2023-12-29T12:54:06;13.60;99.90
41557;DHT22;27720;51.992;5.890;2023-12-29T12:56:32;13.70;99.90
41557;DHT22;27720;51.992;5.890;2023-12-29T12:58:58;13.70;99.90
41557;DHT22;27720;51.992;5.890;2023-12-29T13:01:26;13.60;99.90
41557;DHT22;27720;51.992;5.890;2023-12-29T13:03:52;13.60;99.90
41557;DHT22;27720;51.992;5.890;2023-12-29T13:06:18;13.60;99.90
41557;DHT22;27720;51.992;5.890;2023-12-29T13:08:45;13.60;99.90
41557;DHT22;27720;51.992;5.890;2023-12-29T13:11:11;13.70;99.90
41557;DHT22;27720;51.992;5.890;2023-12-29T13:13:40;13.60;99.90
41557;DHT22;27720;51.992;5.890;2023-12-29T13:16:06;13.70;99.90
41557;DHT22;27720;51.992;5.890;2023-12-29T13:18:32;13.70;99.90
41557;DHT22;27720;51.992;5.890;2023-12-29T13:20:58;13.60;99.90
41557;DHT22;27720;51.992;5.890;2023-12-29T13:23:27;13.60;99.90
41557;DHT22;27720;51.992;5.890;2023-12-29T13:25:55;13.60;99.90
41557;DHT22;27720;51.992;5.890;2023-12-29T13:28:22;13.60;99.90
41557;DHT22;27720;51.992;5.890;2023-12-29T13:30:48;13.60;99.90
41557;DHT22;27720;51.992;5.890;2023-12-29T13:33:37;13.60;99.90
41557;DHT22;27720;51.992;5.890;2023-12-29T13:38:55;13.60;99.90
41557;DHT22;27720;51.992;5.890;2023-12-29T13:41:22;13.60;99.90
41557;DHT22;27720;51.992;5.890;2023-12-29T13:43:50;13.60;99.90
41557;DHT22;27720;51.992;5.890;2023-12-29T13:46:17;13.60;99.90
41557;DHT22;27720;51.992;5.890;2023-12-29T13:48:45;13.60;99.90
41557;DHT22;27720;51.992;5.890;2023-12-29T13:51:11;13.60;99.90
41557;DHT22;27720;51.992;5.890;2023-12-29T13:53:37;13.60;99.90
41557;DHT22;27720;51.992;5.890;2023-12-29T13:56:10;13.60;99.90
41557;DHT22;27720;51.992;5.890;2023-12-29T13:58:36;13.60;99.90
41557;DHT22;27720;51.992;5.890;2023-12-29T14:01:06;13.60;99.90
41557;DHT22;27720;51.992;5.890;2023-12-29T14:03:58;13.50;99.90
41557;DHT22;27720;51.992;5.890;2023-12-29T14:06:37;13.50;99.90
41557;DHT22;27720;51.992;5.890;2023-12-29T14:09:04;13.60;99.90
41557;DHT22;27720;51.992;5.890;2023-12-29T14:11:29;13.50;99.90
41557;DHT22;27720;51.992;5.890;2023-12-29T14:13:56;13.60;99.90
41557;DHT22;27720;51.992;5.890;2023-12-29T14:16:22;13.60;99.90
41557;DHT22;27720;51.992;5.890;2023-12-29T14:18:56;13.60;99.90
41557;DHT22;27720;51.992;5.890;2023-12-29T14:21:33;13.60;99.90
41557;DHT22;27720;51.992;5.890;2023-12-29T14:26:30;13.60;99.90
41557;DHT22;27720;51.992;5.890;2023-12-29T14:29:07;13.60;99.90
41557;DHT22;27720;51.992;5.890;2023-12-29T14:31:39;13.60;99.90
41557;DHT22;27720;51.992;5.890;2023-12-29T14:34:05;13.70;99.90
41557;DHT22;27720;51.992;5.890;2023-12-29T14:36:32;13.60;99.90
41557;DHT22;27720;51.992;5.890;2023-12-29T14:38:58;13.70;99.90
41557;DHT22;27720;51.992;5.890;2023-12-29T14:41:24;13.70;99.90
41557;DHT22;27720;51.992;5.890;2023-12-29T14:43:51;13.70;99.90
41557;DHT22;27720;51.992;5.890;2023-12-29T14:46:16;13.60;99.90
41557;DHT22;27720;51.992;5.890;2023-12-29T14:48:42;13.60;99.90
41557;DHT22;27720;51.992;5.890;2023-12-29T14:51:08;13.60;99.90
41557;DHT22;27720;51.992;5.890;2023-12-29T14:53:34;13.50;99.90
41557;DHT22;27720;51.992;5.890;2023-12-29T14:56:00;13.40;99.90
41557;DHT22;27720;51.992;5.890;2023-12-29T14:58:26;13.20;99.90
41557;DHT22;27720;51.992;5.890;2023-12-29T15:00:52;13.10;99.90
41557;DHT22;27720;51.992;5.890;2023-12-29T15:03:18;13.00;99.90
41557;DHT22;27720;51.992;5.890;2023-12-29T15:05:46;12.90;99.90
41557;DHT22;27720;51.992;5.890;2023-12-29T15:08:13;12.90;99.90
41557;DHT22;27720;51.992;5.890;2023-12-29T15:10:38;12.80;99.90
41557;DHT22;27720;51.992;5.890;2023-12-29T15:13:04;12.80;99.90
41557;DHT22;27720;51.992;5.890;2023-12-29T15:15:33;12.80;99.90
41557;DHT22;27720;51.992;5.890;2023-12-29T15:17:59;12.90;99.90
41557;DHT22;27720;51.992;5.890;2023-12-29T15:20:25;12.90;99.90
41557;DHT22;27720;51.992;5.890;2023-12-29T15:22:50;12.90;99.90
41557;DHT22;27720;51.992;5.890;2023-12-29T15:25:17;12.90;99.90
41557;DHT22;27720;51.992;5.890;2023-12-29T15:27:44;12.80;99.90
41557;DHT22;27720;51.992;5.890;2023-12-29T15:30:10;12.80;99.90
41557;DHT22;27720;51.992;5.890;2023-12-29T15:32:37;12.70;99.90
41557;DHT22;27720;51.992;5.890;2023-12-29T15:35:03;12.50;99.90
41557;DHT22;27720;51.992;5.890;2023-12-29T15:37:29;12.30;99.90
41557;DHT22;27720;51.992;5.890;2023-12-29T15:39:54;12.20;99.90
41557;DHT22;27720;51.992;5.890;2023-12-29T15:42:20;12.20;99.90
41557;DHT22;27720;51.992;5.890;2023-12-29T15:44:46;12.20;99.90
41557;DHT22;27720;51.992;5.890;2023-12-29T15:47:12;12.20;99.90
41557;DHT22;27720;51.992;5.890;2023-12-29T15:49:37;12.20;99.90
41557;DHT22;27720;51.992;5.890;2023-12-29T15:52:03;12.30;99.90
41557;DHT22;27720;51.992;5.890;2023-12-29T15:54:29;12.30;99.90
41557;DHT22;27720;51.992;5.890;2023-12-29T15:56:57;12.40;99.90
41557;DHT22;27720;51.992;5.890;2023-12-29T15:59:22;12.40;99.90
41557;DHT22;27720;51.992;5.890;2023-12-29T16:01:48;12.40;99.90
41557;DHT22;27720;51.992;5.890;2023-12-29T16:04:14;12.40;99.90
41557;DHT22;27720;51.992;5.890;2023-12-29T16:06:39;12.40;99.90
41557;DHT22;27720;51.992;5.890;2023-12-29T16:09:05;12.40;99.90
41557;DHT22;27720;51.992;5.890;2023-12-29T16:11:31;12.40;99.90
41557;DHT22;27720;51.992;5.890;2023-12-29T16:13:57;12.40;99.90
41557;DHT22;27720;51.992;5.890;2023-12-29T16:16:24;12.40;99.90
41557;DHT22;27720;51.992;5.890;2023-12-29T16:18:59;12.50;99.90
41557;DHT22;27720;51.992;5.890;2023-12-29T16:21:26;12.50;99.90
41557;DHT22;27720;51.992;5.890;2023-12-29T16:23:52;12.50;99.90
41557;DHT22;27720;51.992;5.890;2023-12-29T16:26:18;12.50;99.90
41557;DHT22;27720;51.992;5.890;2023-12-29T16:28:45;12.50;99.90
41557;DHT22;27720;51.992;5.890;2023-12-29T16:31:11;12.50;99.90
41557;DHT22;27720;51.992;5.890;2023-12-29T16:33:37;12.50;99.90
41557;DHT22;27720;51.992;5.890;2023-12-29T16:36:09;12.50;99.90
41557;DHT22;27720;51.992;5.890;2023-12-29T16:38:36;12.60;99.90
41557;DHT22;27720;51.992;5.890;2023-12-29T16:41:04;12.50;99.90
41557;DHT22;27720;51.992;5.890;2023-12-29T16:43:30;12.50;99.90
41557;DHT22;27720;51.992;5.890;2023-12-29T16:45:56;12.50;99.90
41557;DHT22;27720;51.992;5.890;2023-12-29T16:48:22;12.50;99.90
41557;DHT22;27720;51.992;5.890;2023-12-29T16:50:47;12.50;99.90
41557;DHT22;27720;51.992;5.890;2023-12-29T16:53:13;12.50;99.90
41557;DHT22;27720;51.992;5.890;2023-12-29T16:55:39;12.50;99.90
41557;DHT22;27720;51.992;5.890;2023-12-29T16:58:05;12.40;99.90
41557;DHT22;27720;51.992;5.890;2023-12-29T17:00:30;12.50;99.90
41557;DHT22;27720;51.992;5.890;2023-12-29T17:02:56;12.50;99.90
41557;DHT22;27720;51.992;5.890;2023-12-29T17:05:21;12.50;99.90
41557;DHT22;27720;51.992;5.890;2023-12-29T17:07:47;12.40;99.90
41557;DHT22;27720;51.992;5.890;2023-12-29T17:10:13;12.30;99.90
41557;DHT22;27720;51.992;5.890;2023-12-29T17:12:39;12.30;99.90
41557;DHT22;27720;51.992;5.890;2023-12-29T17:15:05;12.20;99.90
41557;DHT22;27720;51.992;5.890;2023-12-29T17:17:31;11.90;99.90
41557;DHT22;27720;51.992;5.890;2023-12-29T17:19:57;11.60;99.90
41557;DHT22;27720;51.992;5.890;2023-12-29T17:22:23;11.50;99.90
41557;DHT22;27720;51.992;5.890;2023-12-29T17:24:48;11.50;99.90
41557;DHT22;27720;51.992;5.890;2023-12-29T17:27:14;11.30;99.90
41557;DHT22;27720;51.992;5.890;2023-12-29T17:29:40;11.10;99.90
41557;DHT22;27720;51.992;5.890;2023-12-29T17:32:09;11.00;99.90
41557;DHT22;27720;51.992;5.890;2023-12-29T17:34:35;11.00;99.90
41557;DHT22;27720;51.992;5.890;2023-12-29T17:37:01;11.00;99.90
41557;DHT22;27720;51.992;5.890;2023-12-29T17:39:26;11.00;99.90
41557;DHT22;27720;51.992;5.890;2023-12-29T17:41:52;11.00;99.90
41557;DHT22;27720;51.992;5.890;2023-12-29T17:44:18;11.00;99.90
41557;DHT22;27720;51.992;5.890;2023-12-29T17:46:43;10.90;99.90
41557;DHT22;27720;51.992;5.890;2023-12-29T17:49:09;10.70;99.90
41557;DHT22;27720;51.992;5.890;2023-12-29T17:51:35;10.50;99.90
41557;DHT22;27720;51.992;5.890;2023-12-29T17:54:00;10.40;99.90
41557;DHT22;27720;51.992;5.890;2023-12-29T17:56:26;10.20;99.90
41557;DHT22;27720;51.992;5.890;2023-12-29T17:58:52;10.20;99.90
41557;DHT22;27720;51.992;5.890;2023-12-29T18:01:18;10.10;99.90
41557;DHT22;27720;51.992;5.890;2023-12-29T18:03:44;10.00;99.90
41557;DHT22;27720;51.992;5.890;2023-12-29T18:06:12;10.00;99.90
41557;DHT22;27720;51.992;5.890;2023-12-29T18:08:41;10.00;99.90
41557;DHT22;27720;51.992;5.890;2023-12-29T18:11:08;10.00;99.90
41557;DHT22;27720;51.992;5.890;2023-12-29T18:13:34;10.10;99.90
41557;DHT22;27720;51.992;5.890;2023-12-29T18:16:09;10.10;99.90
41557;DHT22;27720;51.992;5.890;2023-12-29T18:18:36;10.10;99.90
41557;DHT22;27720;51.992;5.890;2023-12-29T18:21:05;10.10;99.90
41557;DHT22;27720;51.992;5.890;2023-12-29T18:23:31;10.20;99.90
41557;DHT22;27720;51.992;5.890;2023-12-29T18:25:56;10.20;99.90
41557;DHT22;27720;51.992;5.890;2023-12-29T18:28:25;10.30;99.90
41557;DHT22;27720;51.992;5.890;2023-12-29T18:30:51;10.30;99.90
41557;DHT22;27720;51.992;5.890;2023-12-29T18:33:16;10.40;99.90
41557;DHT22;27720;51.992;5.890;2023-12-29T18:35:42;10.40;99.90
41557;DHT22;27720;51.992;5.890;2023-12-29T18:38:08;10.40;99.90
41557;DHT22;27720;51.992;5.890;2023-12-29T18:40:33;10.40;99.90
41557;DHT22;27720;51.992;5.890;2023-12-29T18:42:59;10.30;99.90
41557;DHT22;27720;51.992;5.890;2023-12-29T18:45:26;10.40;99.90
41557;DHT22;27720;51.992;5.890;2023-12-29T18:47:51;10.40;99.90
41557;DHT22;27720;51.992;5.890;2023-12-29T18:50:17;10.40;99.90
41557;DHT22;27720;51.992;5.890;2023-12-29T18:52:45;10.30;99.90
41557;DHT22;27720;51.992;5.890;2023-12-29T18:55:11;10.30;99.90
41557;DHT22;27720;51.992;5.890;2023-12-29T18:57:36;10.30;99.90
41557;DHT22;27720;51.992;5.890;2023-12-29T19:00:02;10.20;99.90
41557;DHT22;27720;51.992;5.890;2023-12-29T19:02:28;10.20;99.90
41557;DHT22;27720;51.992;5.890;2023-12-29T19:04:54;10.20;99.90
41557;DHT22;27720;51.992;5.890;2023-12-29T19:07:20;10.20;99.90
41557;DHT22;27720;51.992;5.890;2023-12-29T19:09:45;10.20;99.90
41557;DHT22;27720;51.992;5.890;2023-12-29T19:12:12;10.20;99.90
41557;DHT22;27720;51.992;5.890;2023-12-29T19:14:38;10.20;99.90
41557;DHT22;27720;51.992;5.890;2023-12-29T19:17:06;10.20;99.90
41557;DHT22;27720;51.992;5.890;2023-12-29T19:19:32;10.20;99.90
41557;DHT22;27720;51.992;5.890;2023-12-29T19:21:57;10.20;99.90
41557;DHT22;27720;51.992;5.890;2023-12-29T19:24:24;10.20;99.90
41557;DHT22;27720;51.992;5.890;2023-12-29T19:26:50;10.20;99.90
41557;DHT22;27720;51.992;5.890;2023-12-29T19:29:16;10.20;99.90
41557;DHT22;27720;51.992;5.890;2023-12-29T19:31:45;10.20;99.90
41557;DHT22;27720;51.992;5.890;2023-12-29T19:34:12;10.20;99.90
41557;DHT22;27720;51.992;5.890;2023-12-29T19:36:38;10.20;99.90
41557;DHT22;27720;51.992;5.890;2023-12-29T19:39:04;10.20;99.90
41557;DHT22;27720;51.992;5.890;2023-12-29T19:41:34;10.30;99.90
41557;DHT22;27720;51.992;5.890;2023-12-29T19:44:01;10.30;99.90
41557;DHT22;27720;51.992;5.890;2023-12-29T19:46:27;10.30;99.90
41557;DHT22;27720;51.992;5.890;2023-12-29T19:48:53;10.30;99.90
41557;DHT22;27720;51.992;5.890;2023-12-29T19:51:20;10.30;99.90
41557;DHT22;27720;51.992;5.890;2023-12-29T19:53:46;10.30;99.90
41557;DHT22;27720;51.992;5.890;2023-12-29T19:56:12;10.30;99.90
41557;DHT22;27720;51.992;5.890;2023-12-29T19:58:37;10.20;99.90
41557;DHT22;27720;51.992;5.890;2023-12-29T20:01:04;10.20;99.90
41557;DHT22;27720;51.992;5.890;2023-12-29T20:03:30;10.20;99.90
41557;DHT22;27720;51.992;5.890;2023-12-29T20:05:58;10.10;99.90
41557;DHT22;27720;51.992;5.890;2023-12-29T20:08:24;10.10;99.90
41557;DHT22;27720;51.992;5.890;2023-12-29T20:10:50;10.10;99.90
41557;DHT22;27720;51.992;5.890;2023-12-29T20:13:15;10.10;99.90
41557;DHT22;27720;51.992;5.890;2023-12-29T20:15:41;10.20;99.90
41557;DHT22;27720;51.992;5.890;2023-12-29T20:18:09;10.20;99.90
41557;DHT22;27720;51.992;5.890;2023-12-29T20:20:36;10.20;99.90
41557;DHT22;27720;51.992;5.890;2023-12-29T20:23:02;10.20;99.90
41557;DHT22;27720;51.992;5.890;2023-12-29T20:25:28;10.30;99.90
41557;DHT22;27720;51.992;5.890;2023-12-29T20:27:54;10.30;99.90
41557;DHT22;27720;51.992;5.890;2023-12-29T20:30:19;10.30;99.90
41557;DHT22;27720;51.992;5.890;2023-12-29T20:32:45;10.40;99.90
41557;DHT22;27720;51.992;5.890;2023-12-29T20:35:11;10.40;99.90
41557;DHT22;27720;51.992;5.890;2023-12-29T20:37:37;10.40;99.90
41557;DHT22;27720;51.992;5.890;2023-12-29T20:40:04;10.40;99.90
41557;DHT22;27720;51.992;5.890;2023-12-29T20:42:30;10.40;99.90
41557;DHT22;27720;51.992;5.890;2023-12-29T20:44:55;10.40;99.90
41557;DHT22;27720;51.992;5.890;2023-12-29T20:47:22;10.40;99.90
41557;DHT22;27720;51.992;5.890;2023-12-29T20:49:48;10.40;99.90
41557;DHT22;27720;51.992;5.890;2023-12-29T20:52:13;10.30;99.90
41557;DHT22;27720;51.992;5.890;2023-12-29T20:54:39;10.30;99.90
41557;DHT22;27720;51.992;5.890;2023-12-29T20:57:05;10.30;99.90
41557;DHT22;27720;51.992;5.890;2023-12-29T20:59:31;10.30;99.90
41557;DHT22;27720;51.992;5.890;2023-12-29T21:01:58;10.30;99.90
41557;DHT22;27720;51.992;5.890;2023-12-29T21:04:30;10.30;99.90
41557;DHT22;27720;51.992;5.890;2023-12-29T21:06:55;10.30;99.90
41557;DHT22;27720;51.992;5.890;2023-12-29T21:09:22;10.30;99.90
41557;DHT22;27720;51.992;5.890;2023-12-29T21:11:48;10.30;99.90
41557;DHT22;27720;51.992;5.890;2023-12-29T21:14:14;10.30;99.90
41557;DHT22;27720;51.992;5.890;2023-12-29T21:16:39;10.30;99.90
41557;DHT22;27720;51.992;5.890;2023-12-29T21:19:05;10.30;99.90
41557;DHT22;27720;51.992;5.890;2023-12-29T21:21:39;10.30;99.90
41557;DHT22;27720;51.992;5.890;2023-12-29T21:24:06;10.30;99.90
41557;DHT22;27720;51.992;5.890;2023-12-29T21:26:35;10.30;99.90
41557;DHT22;27720;51.992;5.890;2023-12-29T21:29:03;10.00;99.90
41557;DHT22;27720;51.992;5.890;2023-12-29T21:31:30;9.40;99.90
41557;DHT22;27720;51.992;5.890;2023-12-29T21:34:00;9.00;99.90
41557;DHT22;27720;51.992;5.890;2023-12-29T21:36:27;8.70;99.90
41557;DHT22;27720;51.992;5.890;2023-12-29T21:38:54;8.60;99.90
41557;DHT22;27720;51.992;5.890;2023-12-29T21:41:21;8.60;99.90
41557;DHT22;27720;51.992;5.890;2023-12-29T21:43:47;8.50;99.90
41557;DHT22;27720;51.992;5.890;2023-12-29T21:46:13;8.60;99.90
41557;DHT22;27720;51.992;5.890;2023-12-29T21:48:39;8.50;99.90
41557;DHT22;27720;51.992;5.890;2023-12-29T21:51:05;8.50;99.90
41557;DHT22;27720;51.992;5.890;2023-12-29T21:53:32;8.50;99.90
41557;DHT22;27720;51.992;5.890;2023-12-29T21:55:58;8.40;99.90
41557;DHT22;27720;51.992;5.890;2023-12-29T21:58:30;8.30;99.90
41557;DHT22;27720;51.992;5.890;2023-12-29T22:00:57;8.30;99.90
41557;DHT22;27720;51.992;5.890;2023-12-29T22:03:25;8.40;99.90
41557;DHT22;27720;51.992;5.890;2023-12-29T22:05:51;8.40;99.90
41557;DHT22;27720;51.992;5.890;2023-12-29T22:08:17;8.20;99.90
41557;DHT22;27720;51.992;5.890;2023-12-29T22:10:42;8.10;99.90
41557;DHT22;27720;51.992;5.890;2023-12-29T22:13:08;8.00;99.90
41557;DHT22;27720;51.992;5.890;2023-12-29T22:15:33;8.10;99.90
41557;DHT22;27720;51.992;5.890;2023-12-29T22:17:59;8.20;99.90
41557;DHT22;27720;51.992;5.890;2023-12-29T22:20:25;8.20;99.90
